Thurmond, West Virginia
Current Conditions -  °F | °C
As of 5:30 PM on Friday 31 Oct 2014 (Local Time) from KBKW Reporting Station
Light Rain Light Rain  
Wind Chill: 37°   Ceiling: 1500
Heat Index: 40°   Visibility: 7mi
Dew Point: 36°   Wind: 5mph
Humidity: 86%   Direction: 290°WNW
Pressure: 29.83"   Gusts: NA
Location:  37.96°N, 81.08°W
Report Text: KBKW 312130Z AUTO 29004KT 7SM -RA BKN015 BKN019 OVC032 04/02 A2983 RMK AO2 P0002 T00440022 TSNO
Loading
Personal Weather Stations






























Interactive Weather Map
Tropical Storm Tracking
New forecast layout! Learn more

10-Day Weather Forecast

Advertisements
Track Severe Weather on mobile